Главная страница
METAR-TAF:

METAR-TAF

Аэропорты :

Хай-левел, Альберта, Канада

широта: 58-37N, долгота: 117-10W, высота над уровнем моря: 338 м

Текущие метеонаблюдения

Эта сводка был подготовлена 47 минут назад, в 02:00 UTC
Штиль
Температура 7°C
Влажность 45%
Давление 1016 hPa
Видимость: 24.1 км
небольшая облачность на высоте 7500 фута

METAR: CYOJ 250200Z 00000KT 15SM FEW075 07/M04 A2999 RMK AC2 SLP175

Время: 20:47 (02:47 UTC)

Прогноз

Эта сводка был подготовлена 2 часа и 9 минут назад, в 00:38 UTC
Прогноз действительный с 25-го 01 UTC до 25-го 13 UTC
Ветер 7 Узел от северно-северо-западный
Видимость: 10 км
небольшая облачность на высоте 8000 фута

TAF: CYOJ 250038Z 2501/2513 33007KT P6SM FEW080 RMK NXT FCST BY 250700Z

Метеонаблюдения и прогнозы для более 4000 аэропортов (сводки METAR и TAF).

Имеющиеся станции представлены на карте желтыми и красными точками.

Чтобы увидеть название станции, наведите на нее мышь.

Затем щелкните, чтобы увидеть метеонаблюдения и метеопрогнозы.

Управление картой: чтобы увеличить масштаб, щелкните зеленые кнопки с черным крестиком; чтобы уменьшить масштаб, щелкните зеленую кнопку с тире; для просмотра соседних карт щелкайте зеленые стрелки.


METAR-TAF: